createdAt,value
2018-02-10T00:00:22.103Z,140.93
2018-02-10T00:02:47.850Z,133.00
2018-02-10T00:05:13.611Z,139.37
2018-02-10T00:07:39.367Z,135.00
2018-02-10T00:10:05.114Z,136.00
2018-02-10T00:12:30.874Z,136.53
2018-02-10T00:14:56.621Z,135.57
2018-02-10T00:17:22.436Z,129.07
2018-02-10T00:19:48.191Z,139.17
2018-02-10T00:22:26.442Z,129.33
2018-02-10T00:24:52.183Z,129.60
2018-02-10T00:27:17.929Z,130.87
2018-02-10T00:29:43.690Z,127.23
2018-02-10T00:32:09.441Z,129.93
2018-02-10T00:34:35.190Z,136.97
2018-02-10T00:37:00.974Z,137.47
2018-02-10T00:39:26.702Z,141.93
2018-02-10T00:41:52.456Z,141.17
2018-02-10T00:44:18.218Z,139.57
2018-02-10T00:46:43.971Z,131.07
2018-02-10T00:49:11.106Z,128.70
2018-02-10T00:51:36.910Z,147.32
2018-02-10T00:54:02.689Z,138.20
2018-02-10T00:56:28.437Z,132.90
2018-02-10T00:58:54.219Z,139.03
2018-02-10T01:01:19.988Z,124.07
2018-02-10T01:03:45.746Z,126.40
2018-02-10T01:06:11.499Z,132.50
2018-02-10T01:08:37.267Z,130.90
2018-02-10T01:11:03.018Z,134.63
2018-02-10T01:13:28.806Z,132.40
2018-02-10T01:15:54.559Z,129.80
2018-02-10T01:18:20.320Z,119.30
2018-02-10T01:20:46.067Z,126.17
2018-02-10T01:23:11.833Z,136.20
2018-02-10T01:25:37.586Z,128.90
2018-02-10T01:28:03.383Z,126.80
2018-02-10T01:30:29.130Z,133.10
2018-02-10T01:32:54.882Z,126.83
2018-02-10T01:35:20.635Z,123.50
2018-02-10T01:37:46.394Z,130.17
2018-02-10T01:40:12.167Z,134.10
2018-02-10T01:42:37.917Z,134.30
2018-02-10T01:45:03.694Z,133.47
2018-02-10T01:47:30.335Z,133.33
2018-02-10T01:50:08.590Z,143.27
2018-02-10T01:52:34.350Z,134.48
2018-02-10T01:55:00.107Z,135.97
2018-02-10T01:57:25.859Z,137.80
2018-02-10T01:59:51.614Z,136.93
2018-02-10T02:02:17.367Z,131.10
2018-02-10T02:04:43.125Z,136.50
2018-02-10T02:07:08.883Z,132.43
2018-02-10T02:09:34.645Z,125.33
2018-02-10T02:12:00.394Z,133.73
2018-02-10T02:14:26.162Z,137.00
2018-02-10T02:16:51.902Z,133.63
2018-02-10T02:19:17.690Z,130.93
2018-02-10T02:21:43.448Z,130.17
2018-02-10T02:24:09.198Z,132.77
2018-02-10T02:26:34.964Z,134.00
2018-02-10T02:29:00.730Z,137.60
2018-02-10T02:31:26.496Z,129.73
2018-02-10T02:33:52.259Z,139.57
2018-02-10T02:36:18.033Z,142.40
2018-02-10T02:38:43.824Z,130.17
2018-02-10T02:41:09.610Z,137.80
2018-02-10T02:43:35.364Z,129.10
2018-02-10T02:46:01.136Z,141.83
2018-02-10T02:48:26.874Z,131.27
2018-02-10T02:50:52.655Z,129.50
2018-02-10T02:53:18.416Z,147.30
2018-02-10T02:55:44.198Z,136.33
2018-02-10T02:58:09.939Z,132.53
2018-02-10T03:00:35.710Z,135.60
2018-02-10T03:03:01.454Z,133.27
2018-02-10T03:05:27.211Z,129.70
2018-02-10T03:07:52.980Z,142.90
2018-02-10T03:10:18.730Z,142.30
2018-02-10T03:12:44.498Z,135.73
2018-02-10T03:15:10.230Z,132.93
2018-02-10T03:17:35.982Z,137.97
2018-02-10T03:20:01.738Z,138.17
2018-02-10T03:22:27.501Z,135.60
2018-02-10T03:24:53.238Z,133.20
2018-02-10T03:27:19.014Z,142.63
2018-02-10T03:29:44.759Z,140.97
2018-02-10T03:32:10.510Z,153.40
2018-02-10T03:34:36.258Z,146.93
2018-02-10T03:37:02.030Z,144.00
2018-02-10T03:39:27.774Z,133.27
2018-02-10T03:41:53.570Z,140.97
2018-02-10T03:44:19.350Z,148.10
2018-02-10T03:46:45.090Z,139.33
2018-02-10T03:49:10.846Z,138.20
2018-02-10T03:51:36.618Z,145.13
2018-02-10T03:54:02.371Z,138.43
2018-02-10T03:56:28.146Z,136.80
2018-02-10T03:58:53.990Z,135.87
2018-02-10T04:01:19.733Z,123.30
2018-02-10T04:03:45.503Z,140.17
2018-02-10T04:06:11.250Z,136.73
2018-02-10T04:08:37.030Z,137.57
2018-02-10T04:11:02.774Z,145.27
2018-02-10T04:13:28.552Z,138.20
2018-02-10T04:15:54.311Z,144.27
2018-02-10T04:18:20.070Z,137.33
2018-02-10T04:20:45.826Z,138.33
2018-02-10T04:23:11.586Z,125.60
2018-02-10T04:25:37.350Z,132.97
2018-02-10T04:28:03.110Z,147.27
2018-02-10T04:30:28.855Z,151.60
2018-02-10T04:32:54.614Z,139.00
2018-02-10T04:35:20.361Z,152.97
2018-02-10T04:37:46.130Z,145.20
2018-02-10T04:40:11.883Z,148.23
2018-02-10T04:42:37.646Z,161.63
2018-02-10T04:45:03.413Z,134.77
2018-02-10T04:47:29.162Z,120.67
2018-02-10T04:49:54.910Z,130.00
2018-02-10T04:52:20.662Z,138.83
2018-02-10T04:54:46.431Z,123.57
2018-02-10T04:57:12.185Z,124.37
2018-02-10T04:59:37.947Z,113.63
2018-02-10T05:02:03.686Z,124.23
2018-02-10T05:04:29.438Z,118.20
2018-02-10T05:06:55.182Z,129.40
2018-02-10T05:09:20.935Z,125.47
2018-02-10T05:11:46.678Z,119.90
2018-02-10T05:14:12.435Z,124.83
2018-02-10T05:16:38.187Z,124.27
2018-02-10T05:19:03.962Z,131.80
2018-02-10T05:21:29.694Z,126.10
2018-02-10T05:23:55.441Z,128.50
2018-02-10T05:26:21.211Z,135.63
2018-02-10T05:28:46.954Z,129.17
2018-02-10T05:31:12.698Z,130.53
2018-02-10T05:33:38.448Z,128.43
2018-02-10T05:36:04.197Z,123.70
2018-02-10T05:38:29.929Z,127.47
2018-02-10T05:40:55.661Z,139.57
2018-02-10T05:43:21.404Z,138.97
2018-02-10T05:45:47.158Z,120.57
2018-02-10T05:48:12.918Z,123.97
2018-02-10T05:50:38.667Z,114.33
2018-02-10T05:53:04.430Z,123.93
2018-02-10T05:55:30.189Z,128.93
2018-02-10T05:57:55.930Z,128.13
2018-02-10T06:00:21.705Z,127.37
2018-02-10T06:02:47.455Z,123.03
2018-02-10T06:05:13.210Z,121.17
2018-02-10T06:07:38.970Z,133.73
2018-02-10T06:10:04.706Z,124.70
2018-02-10T06:12:30.479Z,119.47
2018-02-10T06:14:56.210Z,125.13
2018-02-10T06:17:21.978Z,114.03
2018-02-10T06:19:47.722Z,117.20
2018-02-10T06:22:13.494Z,122.10
2018-02-10T06:24:39.238Z,118.80
2018-02-10T06:27:04.988Z,121.07
2018-02-10T06:29:30.732Z,121.53
2018-02-10T06:31:56.478Z,117.90
2018-02-10T06:34:22.218Z,126.67
2018-02-10T06:36:47.966Z,131.73
2018-02-10T06:39:13.712Z,135.60
2018-02-10T06:41:39.470Z,139.33
2018-02-10T06:44:05.210Z,142.43
2018-02-10T06:46:30.972Z,139.60
2018-02-10T06:48:56.711Z,135.47
2018-02-10T06:51:22.474Z,142.33
2018-02-10T06:53:48.217Z,136.33
2018-02-10T06:56:13.983Z,126.93
2018-02-10T06:58:39.718Z,129.80
2018-02-10T07:01:05.454Z,125.27
2018-02-10T07:03:31.215Z,126.97
2018-02-10T07:05:56.946Z,131.03
2018-02-10T07:08:22.702Z,137.20
2018-02-10T07:10:48.450Z,128.83
2018-02-10T07:13:14.212Z,131.33
2018-02-10T07:15:39.959Z,128.77
2018-02-10T07:18:05.702Z,123.00
2018-02-10T07:20:31.454Z,122.57
2018-02-10T07:22:57.206Z,127.40
2018-02-10T07:25:22.957Z,129.17
2018-02-10T07:27:48.723Z,137.13
2018-02-10T07:30:14.477Z,140.77
2018-02-10T07:32:40.222Z,137.37
2018-02-10T07:35:05.978Z,143.40
2018-02-10T07:37:31.731Z,134.70
2018-02-10T07:39:57.489Z,142.00
2018-02-10T07:42:23.398Z,136.13
2018-02-10T07:44:49.143Z,131.40
2018-02-10T07:47:14.899Z,132.97
2018-02-10T07:49:40.642Z,137.17
2018-02-10T07:52:06.402Z,145.50
2018-02-10T07:54:32.158Z,153.80
2018-02-10T07:56:57.893Z,147.13
2018-02-10T07:59:23.664Z,144.40
2018-02-10T08:01:50.131Z,142.80
2018-02-10T08:04:15.906Z,150.38
2018-02-10T08:06:41.667Z,147.83
2018-02-10T08:09:07.488Z,159.13
2018-02-10T08:11:34.390Z,137.23
2018-02-10T08:14:00.164Z,151.68
2018-02-10T08:16:25.919Z,155.50
2018-02-10T08:18:52.118Z,146.57
2018-02-10T08:21:17.899Z,143.87
2018-02-10T08:23:43.973Z,142.53
2018-02-10T08:26:09.747Z,145.43
2018-02-10T08:28:36.334Z,141.07
2018-02-10T08:31:02.222Z,147.40
2018-02-10T08:33:28.285Z,149.27
2018-02-10T08:35:54.332Z,147.20
2018-02-10T08:38:20.385Z,150.30
2018-02-10T08:40:46.136Z,146.57
2018-02-10T08:43:11.919Z,140.10
2018-02-10T08:45:37.655Z,144.17
2018-02-10T08:48:03.693Z,140.53
2018-02-10T08:50:29.458Z,129.87
2018-02-10T08:52:55.230Z,132.70
2018-02-10T08:55:21.036Z,139.37
2018-02-10T08:57:46.745Z,135.57
2018-02-10T09:00:12.498Z,133.73
2018-02-10T09:02:38.246Z,126.37
2018-02-10T09:05:04.074Z,126.33
2018-02-10T09:07:29.813Z,134.27
2018-02-10T09:09:55.626Z,135.27
2018-02-10T09:12:21.338Z,136.03
2018-02-10T09:14:47.109Z,128.80
2018-02-10T09:17:12.859Z,128.80
2018-02-10T09:19:38.622Z,127.87
2018-02-10T09:22:04.371Z,135.47
2018-02-10T09:24:30.181Z,133.40
2018-02-10T09:26:55.938Z,125.67
2018-02-10T09:29:21.698Z,132.93
2018-02-10T09:31:47.543Z,126.53
2018-02-10T09:34:13.273Z,127.93
2018-02-10T09:36:39.023Z,128.90
2018-02-10T09:39:04.786Z,120.17
2018-02-10T09:41:30.575Z,118.83
2018-02-10T09:43:56.318Z,115.93
2018-02-10T09:46:22.092Z,127.70
2018-02-10T09:48:47.845Z,122.40
2018-02-10T09:51:13.639Z,116.10
2018-02-10T09:53:40.314Z,120.10
2018-02-10T09:56:06.073Z,114.85
2018-02-10T09:58:31.834Z,116.70
2018-02-10T10:00:57.591Z,115.83
2018-02-10T10:03:23.346Z,125.47
2018-02-10T10:05:49.127Z,121.57
2018-02-10T10:08:27.963Z,124.47
2018-02-10T10:10:53.757Z,103.75
2018-02-10T10:13:19.513Z,116.03
2018-02-10T10:15:45.307Z,116.33
2018-02-10T10:18:11.059Z,115.13
2018-02-10T10:20:36.833Z,113.27
2018-02-10T10:23:02.578Z,118.37
2018-02-10T10:25:28.352Z,107.40
2018-02-10T10:27:54.102Z,103.80
2018-02-10T10:30:19.855Z,103.53
2018-02-10T10:32:45.606Z,104.73
2018-02-10T10:35:11.361Z,110.20
2018-02-10T10:37:37.124Z,109.00
2018-02-10T10:40:02.895Z,107.63
2018-02-10T10:42:28.746Z,101.43
2018-02-10T10:44:54.496Z,99.53
2018-02-10T10:47:20.258Z,98.67
2018-02-10T10:49:45.998Z,104.47
2018-02-10T10:52:11.795Z,102.23
2018-02-10T10:54:37.528Z,93.40
2018-02-10T10:57:03.305Z,97.60
2018-02-10T10:59:29.066Z,94.03
2018-02-10T11:01:54.831Z,89.63
2018-02-10T11:04:20.636Z,97.30
2018-02-10T11:06:46.345Z,93.33
2018-02-10T11:09:12.108Z,92.03
2018-02-10T11:11:37.868Z,87.80
2018-02-10T11:14:03.635Z,89.13
2018-02-10T11:16:29.455Z,81.53
2018-02-10T11:18:55.278Z,82.43
2018-02-10T11:21:21.141Z,76.97
2018-02-10T11:23:46.910Z,88.23
2018-02-10T11:26:12.690Z,82.53
2018-02-10T11:28:38.507Z,84.90
2018-02-10T11:31:04.268Z,75.97
2018-02-10T11:33:30.047Z,79.03
2018-02-10T11:35:55.802Z,78.57
2018-02-10T11:38:21.571Z,81.07
2018-02-10T11:40:47.336Z,82.40
2018-02-10T11:43:13.184Z,80.73
2018-02-10T11:45:38.939Z,80.87
2018-02-10T11:48:04.711Z,79.90
2018-02-10T11:50:30.470Z,83.07
2018-02-10T11:52:56.251Z,83.43
2018-02-10T11:55:22.068Z,77.23
2018-02-10T11:57:47.881Z,79.03
2018-02-10T12:00:13.639Z,81.13
2018-02-10T12:02:39.425Z,78.87
2018-02-10T12:05:05.183Z,79.07
2018-02-10T12:07:30.955Z,80.27
2018-02-10T12:09:56.719Z,77.50
2018-02-10T12:12:23.418Z,73.83
2018-02-10T12:14:49.317Z,74.97
2018-02-10T12:17:15.121Z,72.30
2018-02-10T12:19:42.304Z,72.33
2018-02-10T12:22:15.183Z,73.32
2018-02-10T12:24:41.077Z,71.57
2018-02-10T12:27:06.823Z,75.07
2018-02-10T12:29:32.585Z,68.20
2018-02-10T12:31:58.410Z,67.77
2018-02-10T12:34:25.407Z,67.10
2018-02-10T12:36:52.675Z,67.87
2018-02-10T12:39:18.487Z,68.50
2018-02-10T12:41:44.699Z,70.03
2018-02-10T12:44:10.457Z,72.43
2018-02-10T12:46:36.214Z,68.33
2018-02-10T12:52:01.942Z,74.60
2018-02-10T12:54:29.418Z,77.53
2018-02-10T12:56:56.476Z,75.25
2018-02-10T12:59:22.291Z,74.32
2018-02-10T13:01:49.418Z,72.07
2018-02-10T13:04:16.438Z,74.60
2018-02-10T13:06:43.430Z,75.07
2018-02-10T13:09:10.110Z,77.30
2018-02-10T13:11:36.671Z,73.05
2018-02-10T13:14:02.422Z,66.57
2018-02-10T13:16:28.195Z,75.37
2018-02-10T13:18:53.960Z,66.27
2018-02-10T13:21:19.723Z,64.47
2018-02-10T13:23:45.486Z,65.20
2018-02-10T13:26:11.261Z,68.30
2018-02-10T13:28:37.021Z,66.17
2018-02-10T13:31:02.811Z,69.67
2018-02-10T13:33:28.556Z,70.27
2018-02-10T13:35:54.315Z,68.93
2018-02-10T13:38:20.095Z,68.40
2018-02-10T13:40:45.931Z,66.43
2018-02-10T13:43:11.654Z,69.30
2018-02-10T13:45:37.407Z,65.97
2018-02-10T13:48:03.174Z,72.40
2018-02-10T13:50:28.919Z,70.97
2018-02-10T13:52:54.687Z,71.90
2018-02-10T13:55:20.446Z,68.13
2018-02-10T13:57:46.216Z,70.70
2018-02-10T14:00:12.020Z,55.73
2018-02-10T14:02:37.774Z,59.67
2018-02-10T14:05:03.540Z,56.27
2018-02-10T14:07:29.306Z,55.23
2018-02-10T14:09:55.214Z,50.90
2018-02-10T14:12:20.984Z,51.27
2018-02-10T14:14:46.753Z,55.67
2018-02-10T14:17:13.507Z,56.57
2018-02-10T14:19:39.260Z,51.47
2018-02-10T14:22:05.019Z,48.77
2018-02-10T14:24:30.794Z,53.67
2018-02-10T14:26:56.567Z,54.93
2018-02-10T14:29:22.337Z,52.20
2018-02-10T14:31:48.103Z,52.97
2018-02-10T14:34:13.866Z,54.63
2018-02-10T14:36:39.623Z,52.60
2018-02-10T14:39:05.416Z,50.83
2018-02-10T14:41:31.189Z,45.33
2018-02-10T14:43:57.007Z,48.67
2018-02-10T14:46:22.780Z,44.27
2018-02-10T14:48:48.546Z,49.87
2018-02-10T14:51:14.316Z,45.20
2018-02-10T14:53:40.093Z,45.00
2018-02-10T14:56:05.846Z,43.67
2018-02-10T14:58:31.623Z,45.70
2018-02-10T15:00:57.394Z,40.67
2018-02-10T15:03:23.161Z,38.33
2018-02-10T15:05:48.920Z,31.87
2018-02-10T15:08:14.690Z,32.67
2018-02-10T15:10:40.466Z,30.47
2018-02-10T15:13:06.243Z,29.10
2018-02-10T15:15:32.007Z,32.10
2018-02-10T15:17:57.774Z,34.60
2018-02-10T15:20:23.555Z,32.57
2018-02-10T15:22:49.353Z,31.33
2018-02-10T15:25:15.114Z,30.77
2018-02-10T15:27:40.858Z,32.10
2018-02-10T15:30:18.828Z,30.40
2018-02-10T15:35:49.458Z,32.97
2018-02-10T15:38:15.211Z,31.27
2018-02-10T15:40:40.983Z,32.20
2018-02-10T15:43:06.725Z,31.27
2018-02-10T15:45:32.482Z,28.47
2018-02-10T15:47:58.241Z,30.67
2018-02-10T15:50:24.015Z,32.63
2018-02-10T15:52:49.775Z,34.40
2018-02-10T15:55:15.546Z,35.23
2018-02-10T15:57:41.385Z,31.57
2018-02-10T16:00:07.158Z,31.07
2018-02-10T16:02:32.896Z,33.23
2018-02-10T16:04:58.658Z,32.93
2018-02-10T16:07:24.443Z,34.53
2018-02-10T16:09:50.186Z,35.60
2018-02-10T16:12:15.937Z,37.70
2018-02-10T16:14:41.698Z,34.17
2018-02-10T16:17:07.467Z,33.97
2018-02-10T16:19:33.214Z,35.27
2018-02-10T16:21:58.995Z,36.57
2018-02-10T16:24:24.741Z,37.43
2018-02-10T16:26:50.494Z,37.73
2018-02-10T16:29:16.234Z,42.07
2018-02-10T16:31:42.007Z,44.03
2018-02-10T16:34:07.749Z,40.13
2018-02-10T16:36:40.536Z,33.97
2018-02-10T16:39:06.406Z,37.83
2018-02-10T16:41:32.187Z,37.20
2018-02-10T16:43:57.941Z,38.17
2018-02-10T16:46:23.730Z,34.33
2018-02-10T16:48:50.217Z,33.63
2018-02-10T16:51:15.963Z,36.92
2018-02-10T16:53:41.722Z,49.43
2018-02-10T16:56:07.516Z,43.90
2018-02-10T16:58:33.283Z,35.33
2018-02-10T17:00:59.143Z,40.57
2018-02-10T17:03:25.050Z,42.77
2018-02-10T17:05:50.804Z,41.77
2018-02-10T17:08:16.587Z,40.90
2018-02-10T17:10:42.359Z,35.10
2018-02-10T17:13:08.142Z,37.93
2018-02-10T17:15:33.893Z,37.83
2018-02-10T17:17:59.664Z,43.33
2018-02-10T17:20:25.410Z,43.00
2018-02-10T17:22:51.180Z,43.23
2018-02-10T17:25:16.944Z,43.03
2018-02-10T17:27:42.710Z,40.80
2018-02-10T17:30:08.465Z,41.37
2018-02-10T17:32:34.248Z,43.97
2018-02-10T17:34:59.990Z,43.43
2018-02-10T17:37:25.775Z,46.33
2018-02-10T17:39:51.534Z,43.20
2018-02-10T17:42:17.314Z,46.17
2018-02-10T17:44:43.068Z,44.30
2018-02-10T17:47:08.830Z,44.50
2018-02-10T17:49:34.596Z,50.50
2018-02-10T17:52:00.359Z,43.07
2018-02-10T17:54:26.122Z,49.60
2018-02-10T17:56:51.866Z,50.83
2018-02-10T17:59:17.638Z,46.83
2018-02-10T18:01:43.406Z,50.30
2018-02-10T18:04:09.171Z,50.43
2018-02-10T18:06:34.931Z,50.77
2018-02-10T18:09:00.716Z,48.70
2018-02-10T18:11:26.471Z,50.57
2018-02-10T18:13:52.272Z,50.90
2018-02-10T18:16:18.057Z,54.30
2018-02-10T18:18:43.798Z,51.77
2018-02-10T18:21:09.564Z,53.93
2018-02-10T18:23:35.326Z,51.50
2018-02-10T18:26:01.106Z,55.63
2018-02-10T18:28:26.861Z,57.00
2018-02-10T18:30:52.618Z,61.80
2018-02-10T18:33:18.376Z,57.10
2018-02-10T18:35:44.144Z,55.53
2018-02-10T18:38:09.894Z,60.47
2018-02-10T18:40:35.649Z,62.40
2018-02-10T18:43:01.395Z,57.07
2018-02-10T18:45:27.171Z,65.43
2018-02-10T18:47:52.923Z,64.17
2018-02-10T18:50:18.682Z,64.73
2018-02-10T18:52:44.469Z,64.07
2018-02-10T18:55:10.214Z,68.77
2018-02-10T18:57:35.961Z,65.20
2018-02-10T19:00:01.748Z,61.77
2018-02-10T19:02:27.488Z,58.50
2018-02-10T19:04:53.247Z,64.23
2018-02-10T19:07:18.994Z,67.70
2018-02-10T19:09:44.756Z,72.73
2018-02-10T19:12:10.507Z,65.63
2018-02-10T19:14:36.286Z,69.77
2018-02-10T19:17:02.036Z,68.00
2018-02-10T19:19:27.810Z,66.83
2018-02-10T19:21:53.569Z,71.40
2018-02-10T19:24:19.326Z,73.57
2018-02-10T19:26:45.089Z,71.07
2018-02-10T19:29:10.842Z,70.60
2018-02-10T19:31:36.615Z,69.80
2018-02-10T19:34:02.359Z,76.00
2018-02-10T19:36:28.127Z,77.17
2018-02-10T19:38:53.874Z,76.40
2018-02-10T19:41:19.643Z,78.00
2018-02-10T19:43:45.414Z,75.90
2018-02-10T19:46:11.182Z,85.03
2018-02-10T19:48:36.947Z,78.13
2018-02-10T19:51:02.708Z,77.77
2018-02-10T19:53:28.481Z,80.97
2018-02-10T19:55:54.239Z,76.73
2018-02-10T19:58:20.005Z,74.27
2018-02-10T20:00:45.758Z,74.03
2018-02-10T20:03:11.535Z,74.13
2018-02-10T20:05:37.282Z,80.97
2018-02-10T20:08:03.042Z,79.83
2018-02-10T20:10:28.798Z,78.90
2018-02-10T20:12:54.568Z,76.03
2018-02-10T20:15:20.418Z,88.40
2018-02-10T20:17:46.182Z,87.60
2018-02-10T20:20:11.934Z,88.40
2018-02-10T20:22:37.710Z,91.27
2018-02-10T20:25:03.470Z,85.13
2018-02-10T20:27:29.247Z,78.23
2018-02-10T20:29:54.993Z,78.03
2018-02-10T20:32:20.762Z,78.70
2018-02-10T20:34:46.523Z,79.00
2018-02-10T20:37:12.281Z,79.70
2018-02-10T20:39:38.064Z,80.03
2018-02-10T20:42:03.815Z,82.10
2018-02-10T20:44:29.594Z,78.73
2018-02-10T20:46:55.944Z,80.73
2018-02-10T20:49:21.714Z,88.18
2018-02-10T20:51:47.464Z,81.40
2018-02-10T20:54:13.226Z,85.77
2018-02-10T20:56:38.985Z,88.37
2018-02-10T20:59:04.751Z,78.93
2018-02-10T21:01:30.777Z,85.90
2018-02-10T21:03:56.546Z,92.37
2018-02-10T21:06:22.293Z,89.07
2018-02-10T21:08:48.062Z,88.63
2018-02-10T21:11:13.822Z,82.67
2018-02-10T21:13:39.603Z,77.17
2018-02-10T21:16:05.759Z,82.63
2018-02-10T21:18:31.512Z,81.75
2018-02-10T21:20:57.294Z,79.53
2018-02-10T21:23:23.035Z,80.70
2018-02-10T21:25:48.816Z,77.30
2018-02-10T21:28:14.572Z,73.17
2018-02-10T21:30:40.343Z,68.80
2018-02-10T21:33:06.102Z,74.97
2018-02-10T21:35:31.886Z,71.77
2018-02-10T21:37:57.631Z,67.77
2018-02-10T21:40:23.397Z,76.73
2018-02-10T21:42:49.166Z,78.07
2018-02-10T21:45:14.943Z,77.97
2018-02-10T21:47:40.693Z,71.53
2018-02-10T21:50:06.472Z,77.63
2018-02-10T21:52:32.219Z,76.83
2018-02-10T21:54:57.973Z,76.90
2018-02-10T21:57:23.755Z,73.63
2018-02-10T21:59:49.490Z,79.07
2018-02-10T22:02:15.249Z,71.10
2018-02-10T22:04:41.018Z,82.33
2018-02-10T22:07:06.778Z,75.33
2018-02-10T22:09:32.535Z,79.03
2018-02-10T22:11:58.303Z,76.50
2018-02-10T22:14:24.055Z,73.97
2018-02-10T22:16:49.819Z,79.00
2018-02-10T22:19:15.584Z,78.50
2018-02-10T22:21:41.346Z,73.60
2018-02-10T22:24:07.110Z,78.23
2018-02-10T22:26:32.898Z,75.33
2018-02-10T22:28:58.658Z,73.47
2018-02-10T22:31:24.510Z,75.80
2018-02-10T22:33:50.266Z,72.63
2018-02-10T22:36:16.014Z,72.27
2018-02-10T22:38:41.826Z,72.53
2018-02-10T22:41:07.582Z,70.97
2018-02-10T22:43:33.343Z,76.50
2018-02-10T22:45:59.102Z,81.63
2018-02-10T22:48:24.871Z,76.93
2018-02-10T22:50:50.631Z,77.97
2018-02-10T22:53:16.412Z,85.03
2018-02-10T22:55:42.158Z,76.73
2018-02-10T22:58:07.922Z,83.37
2018-02-10T23:00:33.698Z,81.37
2018-02-10T23:02:59.462Z,83.80
2018-02-10T23:05:25.235Z,80.07
2018-02-10T23:07:51.027Z,83.33
2018-02-10T23:10:16.778Z,88.97
2018-02-10T23:12:42.544Z,84.23
2018-02-10T23:15:08.301Z,83.67
2018-02-10T23:17:34.071Z,85.83
2018-02-10T23:19:59.823Z,80.77
2018-02-10T23:22:25.605Z,81.50
2018-02-10T23:24:51.355Z,77.33
2018-02-10T23:27:17.118Z,82.37
2018-02-10T23:29:42.883Z,79.73
2018-02-10T23:32:08.634Z,87.03
2018-02-10T23:34:34.401Z,87.57
2018-02-10T23:37:00.151Z,87.87
2018-02-10T23:39:25.958Z,92.47
2018-02-10T23:41:51.710Z,83.73
2018-02-10T23:44:17.484Z,86.97
2018-02-10T23:46:43.246Z,83.70
2018-02-10T23:49:09.044Z,85.43
2018-02-10T23:51:34.839Z,89.23
2018-02-10T23:54:00.610Z,86.00
2018-02-10T23:56:26.389Z,83.50
2018-02-10T23:58:52.152Z,87.07
